OIAH  Gachsaran Airport

Add Bookmark

Iran

Status
Operational
Latitude Longitude
30° 20' 15" N 50° 49' 40" E
30.337601 50.827999
Local (DST + 5) UTC (GMT + 4)
Aug 27, 2014 03:20 Aug 27, 2014 10:50
Sunrise-Sunset Local UTC
Begin Civil Twilight 06:14 01:44
Sunrise 06:39 02:09
Sunset 07:36 15:06
End Civil Twilight 08:01 15:31

Current Weather

METAR Observed VFR
OIAH 270700Z 00000KT CAVOK 39/16 Q1010 Wed, Aug 27, 2014 @ 07:00 UTC
(3 Hours, 50 Minutes ago)
Visual Flight Rules
Wind Visibility Clouds Conditions
Calm 10 km or more
  • Clear skies
  • No significant weather
Temperatures Readings Precipitation
Current Temp 39°C (102°F)
Dewpoint 16°C (61°F)
Humidity 26%
Altimeter 29.82"Hg
Sea Level Pressure 1010mb
Field Elevation 2421.26'
None Recorded

Additional weather within a 92.6km radius of OIAH

Map ICAO Location
OISY 79.6km E (059°)

24 Hour Weather History

Loading
-

24 Hour Weather Graphs

Loading
-

CheckWX.com is intended as a tool to help pilots better visualize weather data. It is not intended as a substitute for an official weather briefing obtained from a Flight Service Station. CheckWX.com does not meet the FAA requirements for an official pre-flight weather briefing. Therefore, it's important that pilots still call and obtain an official FSS pre-flight weather briefing.